createdAt,value
2022-09-06T00:00:34.514Z,101474.04
2022-09-06T00:03:06.884Z,101476.73
2022-09-06T00:05:39.580Z,101472.36
2022-09-06T00:08:11.739Z,101474.73
2022-09-06T00:10:44.206Z,101477.58
2022-09-06T00:13:16.515Z,101473.61
2022-09-06T00:15:48.764Z,101476.34
2022-09-06T00:18:20.998Z,101471.67
2022-09-06T00:20:53.929Z,101473.76
2022-09-06T00:23:26.199Z,101474.30
2022-09-06T00:26:06.044Z,101474.27
2022-09-06T00:28:38.291Z,101473.35
2022-09-06T00:31:15.752Z,101472.80
2022-09-06T00:33:48.187Z,101472.30
2022-09-06T00:36:21.355Z,101475.11
2022-09-06T00:38:53.686Z,101474.86
2022-09-06T00:41:26.358Z,101472.69
2022-09-06T00:43:58.532Z,101470.09
2022-09-06T00:46:33.382Z,101469.29
2022-09-06T00:49:08.604Z,101467.05
2022-09-06T00:51:41.648Z,101465.81
2022-09-06T00:54:13.793Z,101463.00
2022-09-06T00:56:47.612Z,101458.13
2022-09-06T00:59:20.468Z,101458.30
2022-09-06T01:01:53.690Z,101458.21
2022-09-06T01:04:27.719Z,101456.62
2022-09-06T01:07:09.479Z,101457.71
2022-09-06T01:09:56.150Z,101454.67
2022-09-06T01:12:39.739Z,101458.89
2022-09-06T01:15:25.956Z,101457.63
2022-09-06T01:18:10.307Z,101456.63
2022-09-06T01:20:53.467Z,101455.52
2022-09-06T01:23:52.280Z,101458.67
2022-09-06T01:26:58.521Z,101466.37
2022-09-06T01:29:38.019Z,101469.58
2022-09-06T01:32:18.496Z,101472.66
2022-09-06T01:34:55.471Z,101470.70
2022-09-06T01:37:28.164Z,101470.48
2022-09-06T01:40:00.511Z,101468.84
2022-09-06T01:42:36.056Z,101464.96
2022-09-06T01:45:09.151Z,101464.21
2022-09-06T01:47:53.323Z,101460.15
2022-09-06T01:50:46.354Z,101457.61
2022-09-06T01:53:45.075Z,101457.39
2022-09-06T01:56:32.011Z,101453.60
2022-09-06T01:59:25.739Z,101451.60
2022-09-06T02:02:07.072Z,101447.33
2022-09-06T02:04:46.753Z,101441.95
2022-09-06T02:07:23.058Z,101435.87
2022-09-06T02:10:01.364Z,101435.20
2022-09-06T02:12:36.979Z,101430.44
2022-09-06T02:15:09.621Z,101429.72
2022-09-06T02:17:46.028Z,101429.61
2022-09-06T02:20:21.984Z,101430.39
2022-09-06T02:22:57.947Z,101430.30
2022-09-06T02:25:35.459Z,101432.45
2022-09-06T02:28:08.843Z,101431.48
2022-09-06T02:30:44.644Z,101429.80
2022-09-06T02:33:21.553Z,101433.56
2022-09-06T02:35:56.686Z,101426.45
2022-09-06T02:38:29.793Z,101427.64
2022-09-06T02:41:02.155Z,101425.12
2022-09-06T02:43:34.310Z,101431.98
2022-09-06T02:46:06.588Z,101434.73
2022-09-06T02:48:38.973Z,101433.58
2022-09-06T02:51:12.067Z,101431.67
2022-09-06T02:53:44.337Z,101435.01
2022-09-06T02:56:16.510Z,101433.34
2022-09-06T02:58:50.035Z,101435.05
2022-09-06T03:01:22.304Z,101431.69
2022-09-06T03:03:54.509Z,101430.94
2022-09-06T03:06:26.705Z,101431.45
2022-09-06T03:09:00.328Z,101431.06
2022-09-06T03:11:32.707Z,101430.98
2022-09-06T03:14:04.955Z,101440.71
2022-09-06T03:16:38.800Z,101439.49
2022-09-06T03:19:11.113Z,101440.81
2022-09-06T03:21:43.295Z,101441.79
2022-09-06T03:24:15.443Z,101439.95
2022-09-06T03:26:47.735Z,101443.63
2022-09-06T03:29:19.860Z,101437.89
2022-09-06T03:31:52.176Z,101441.11
2022-09-06T03:34:24.378Z,101441.22
2022-09-06T03:36:56.675Z,101446.23
2022-09-06T03:39:29.854Z,101446.75
2022-09-06T03:42:02.059Z,101446.02
2022-09-06T03:44:34.296Z,101449.78
2022-09-06T03:47:07.321Z,101454.38
2022-09-06T03:49:39.587Z,101456.80
2022-09-06T03:52:11.776Z,101452.61
2022-09-06T03:54:43.969Z,101460.49
2022-09-06T03:57:16.159Z,101461.86
2022-09-06T03:59:48.307Z,101464.02
2022-09-06T04:02:20.542Z,101462.95
2022-09-06T04:04:55.648Z,101463.29
2022-09-06T04:07:27.867Z,101452.41
2022-09-06T04:10:00.060Z,101449.09
2022-09-06T04:12:32.327Z,101450.34
2022-09-06T04:15:04.963Z,101462.94
2022-09-06T04:17:37.244Z,101472.29
2022-09-06T04:20:11.423Z,101481.17
2022-09-06T04:22:43.614Z,101487.36
2022-09-06T04:25:15.754Z,101489.11
2022-09-06T04:27:47.896Z,101483.42
2022-09-06T04:30:20.179Z,101475.63
2022-09-06T04:32:52.410Z,101476.96
2022-09-06T04:35:24.615Z,101478.59
2022-09-06T04:37:56.764Z,101480.77
2022-09-06T04:40:28.928Z,101477.76
2022-09-06T04:43:01.095Z,101476.73
2022-09-06T04:45:33.377Z,101480.27
2022-09-06T04:48:05.950Z,101485.00
2022-09-06T04:50:38.684Z,101486.02
2022-09-06T04:53:12.002Z,101487.60
2022-09-06T04:55:44.233Z,101487.65
2022-09-06T04:58:16.395Z,101489.54
2022-09-06T05:00:48.590Z,101491.56
2022-09-06T05:03:21.020Z,101491.31
2022-09-06T05:05:53.205Z,101491.50
2022-09-06T05:08:25.776Z,101493.80
2022-09-06T05:10:57.958Z,101491.65
2022-09-06T05:13:30.251Z,101488.80
2022-09-06T05:16:05.439Z,101487.86
2022-09-06T05:18:38.072Z,101486.20
2022-09-06T05:21:10.419Z,101494.23
2022-09-06T05:23:43.005Z,101495.40
2022-09-06T05:26:15.190Z,101495.42
2022-09-06T05:28:47.496Z,101493.77
2022-09-06T05:31:30.057Z,101491.10
2022-09-06T05:34:03.055Z,101493.20
2022-09-06T05:36:35.637Z,101492.73
2022-09-06T05:39:07.853Z,101486.56
2022-09-06T05:41:40.040Z,101484.99
2022-09-06T05:44:12.325Z,101483.12
2022-09-06T05:46:46.976Z,101479.64
2022-09-06T05:49:19.234Z,101477.23
2022-09-06T05:51:54.648Z,101477.73
2022-09-06T05:54:26.914Z,101483.27
2022-09-06T05:56:59.096Z,101477.20
2022-09-06T05:59:31.310Z,101476.48
2022-09-06T06:02:07.215Z,101478.09
2022-09-06T06:04:39.820Z,101478.19
2022-09-06T06:07:12.038Z,101477.67
2022-09-06T06:09:44.799Z,101477.61
2022-09-06T06:12:17.003Z,101475.21
2022-09-06T06:14:49.228Z,101477.10
2022-09-06T06:17:21.381Z,101477.38
2022-09-06T06:19:53.644Z,101477.77
2022-09-06T06:22:25.809Z,101476.09
2022-09-06T06:24:58.552Z,101477.56
2022-09-06T06:27:30.999Z,101478.65
2022-09-06T06:30:03.180Z,101478.59
2022-09-06T06:32:35.374Z,101470.42
2022-09-06T06:35:09.726Z,101469.69
2022-09-06T06:37:42.459Z,101474.14
2022-09-06T06:40:15.088Z,101477.85
2022-09-06T06:42:47.316Z,101483.73
2022-09-06T06:45:22.245Z,101487.71
2022-09-06T06:47:54.474Z,101487.20
2022-09-06T06:50:26.746Z,101491.12
2022-09-06T06:52:58.964Z,101489.14
2022-09-06T06:55:31.223Z,101493.08
2022-09-06T06:58:04.414Z,101485.84
2022-09-06T07:00:38.744Z,101496.31
2022-09-06T07:03:11.661Z,101489.13
2022-09-06T07:08:38.416Z,101488.19
2022-09-06T07:11:12.203Z,101488.66
2022-09-06T07:13:44.563Z,101490.42
2022-09-06T07:16:19.407Z,101488.63
2022-09-06T07:18:53.992Z,101491.51
2022-09-06T07:21:43.431Z,101493.09
2022-09-06T07:24:16.147Z,101492.46
2022-09-06T07:29:40.457Z,101500.70
2022-09-06T07:32:12.760Z,101495.50
2022-09-06T07:34:45.222Z,101500.11
2022-09-06T07:37:17.363Z,101505.05
2022-09-06T07:39:49.868Z,101500.91
2022-09-06T07:42:22.086Z,101502.92
2022-09-06T07:44:57.793Z,101505.42
2022-09-06T07:53:16.678Z,101513.47
2022-09-06T07:55:54.023Z,101513.85
2022-09-06T07:58:26.295Z,101515.15
2022-09-06T08:01:17.870Z,101515.97
2022-09-06T08:03:50.616Z,101515.77
2022-09-06T08:06:24.180Z,101516.02
2022-09-06T08:11:35.731Z,101512.15
2022-09-06T08:14:10.026Z,101514.69
2022-09-06T08:16:42.554Z,101514.54
2022-09-06T08:19:14.867Z,101512.84
2022-09-06T08:21:47.062Z,101513.48
2022-09-06T08:24:19.308Z,101510.55
2022-09-06T08:26:51.565Z,101507.73
2022-09-06T08:29:23.708Z,101505.19
2022-09-06T08:31:55.951Z,101507.29
2022-09-06T08:34:28.435Z,101503.23
2022-09-06T08:37:00.684Z,101507.14
2022-09-06T08:39:32.959Z,101507.89
2022-09-06T08:42:07.123Z,101503.02
2022-09-06T08:44:58.463Z,101500.59
2022-09-06T08:47:31.167Z,101493.89
2022-09-06T08:50:07.724Z,101493.55
2022-09-06T08:55:55.456Z,101487.14
2022-09-06T08:58:54.727Z,101477.56
2022-09-06T09:01:31.433Z,101474.11
2022-09-06T09:04:09.313Z,101462.49
2022-09-06T09:06:41.648Z,101460.69
2022-09-06T09:09:17.909Z,101466.73
2022-09-06T09:11:53.069Z,101463.68
2022-09-06T09:14:30.466Z,101464.55
2022-09-06T09:17:07.883Z,101460.63
2022-09-06T09:19:43.216Z,101461.21
2022-09-06T09:22:14.784Z,101450.95
2022-09-06T09:24:48.483Z,101444.41
2022-09-06T09:27:24.329Z,101441.89
2022-09-06T09:32:59.556Z,101437.26
2022-09-06T09:35:38.315Z,101438.05
2022-09-06T09:38:14.066Z,101436.47
2022-09-06T09:40:53.890Z,101435.63
2022-09-06T09:43:29.733Z,101429.08
2022-09-06T09:46:14.852Z,101428.64
2022-09-06T09:49:02.181Z,101423.17
2022-09-06T09:51:35.627Z,101423.81
2022-09-06T09:54:09.774Z,101424.53
2022-09-06T09:56:46.923Z,101424.61
2022-09-06T09:59:26.009Z,101422.99
2022-09-06T10:02:01.643Z,101416.38
2022-09-06T10:04:44.753Z,101417.59
2022-09-06T10:07:20.540Z,101415.00
2022-09-06T10:09:59.466Z,101409.39
2022-09-06T10:12:38.992Z,101405.81
2022-09-06T10:15:14.174Z,101399.71
2022-09-06T10:17:51.126Z,101397.02
2022-09-06T10:20:33.480Z,101397.92
2022-09-06T10:23:13.718Z,101399.20
2022-09-06T10:25:49.765Z,101394.45
2022-09-06T10:28:41.945Z,101393.84
2022-09-06T10:31:50.146Z,101393.77
2022-09-06T10:34:46.097Z,101392.41
2022-09-06T10:37:24.323Z,101383.28
2022-09-06T10:40:04.389Z,101386.25
2022-09-06T10:42:44.222Z,101386.56
2022-09-06T10:45:28.628Z,101387.34
2022-09-06T10:48:04.886Z,101381.04
2022-09-06T10:50:47.300Z,101380.58
2022-09-06T10:53:32.336Z,101379.66
2022-09-06T10:56:10.136Z,101376.37
2022-09-06T11:01:46.045Z,101381.21
2022-09-06T11:04:26.777Z,101377.90
2022-09-06T11:07:04.917Z,101374.50
2022-09-06T11:09:42.769Z,101369.23
2022-09-06T11:12:19.878Z,101362.75
2022-09-06T11:14:52.970Z,101365.50
2022-09-06T11:17:35.305Z,101364.62
2022-09-06T11:20:12.775Z,101360.77
2022-09-06T11:23:20.362Z,101355.64
2022-09-06T11:26:24.899Z,101351.34
2022-09-06T11:28:59.396Z,101351.60
2022-09-06T11:34:29.251Z,101354.04
2022-09-06T11:37:02.943Z,101349.09
2022-09-06T11:43:13.469Z,101348.25
2022-09-06T11:45:48.594Z,101344.95
2022-09-06T11:48:45.010Z,101345.88
2022-09-06T11:51:35.308Z,101338.84
2022-09-06T11:54:35.932Z,101334.64
2022-09-06T11:57:16.604Z,101336.13
2022-09-06T12:00:00.589Z,101332.31
2022-09-06T12:02:38.355Z,101329.05
2022-09-06T12:05:26.581Z,101325.52
2022-09-06T12:08:32.025Z,101323.92
2022-09-06T12:11:23.063Z,101318.73
2022-09-06T12:14:03.355Z,101319.04
2022-09-06T12:17:09.999Z,101311.48
2022-09-06T12:19:49.330Z,101305.76
2022-09-06T12:23:06.999Z,101304.50
2022-09-06T12:25:58.614Z,101296.13
2022-09-06T12:28:48.518Z,101289.14
2022-09-06T12:31:40.679Z,101283.60
2022-09-06T12:34:15.915Z,101278.70
2022-09-06T12:36:54.996Z,101276.98
2022-09-06T12:39:27.513Z,101273.10
2022-09-06T12:42:02.040Z,101275.01
2022-09-06T12:44:37.720Z,101272.75
2022-09-06T12:47:17.755Z,101273.45
2022-09-06T12:50:05.576Z,101271.08
2022-09-06T12:52:47.399Z,101265.81
2022-09-06T12:55:24.347Z,101265.42
2022-09-06T12:57:58.175Z,101263.17
2022-09-06T13:00:36.236Z,101267.16
2022-09-06T13:03:24.586Z,101261.73
2022-09-06T13:05:59.494Z,101264.30
2022-09-06T13:08:37.558Z,101260.08
2022-09-06T13:11:14.576Z,101262.39
2022-09-06T13:13:52.379Z,101258.09
2022-09-06T13:16:26.807Z,101264.37
2022-09-06T13:19:14.544Z,101256.09
2022-09-06T13:21:48.236Z,101257.11
2022-09-06T13:24:25.489Z,101257.11
2022-09-06T13:26:57.927Z,101256.98
2022-09-06T13:29:33.343Z,101251.08
2022-09-06T13:32:09.736Z,101250.84
2022-09-06T13:34:57.055Z,101245.43
2022-09-06T13:37:32.700Z,101241.42
2022-09-06T13:40:25.080Z,101240.45
2022-09-06T13:43:03.908Z,101241.97
2022-09-06T13:45:36.415Z,101238.58
2022-09-06T13:48:28.384Z,101240.52
2022-09-06T13:51:00.966Z,101235.57
2022-09-06T13:53:33.241Z,101234.10
2022-09-06T13:56:08.871Z,101229.46
2022-09-06T13:58:41.189Z,101228.71
2022-09-06T14:01:14.702Z,101229.69
2022-09-06T14:03:47.376Z,101230.70
2022-09-06T14:06:19.529Z,101227.23
2022-09-06T14:09:08.255Z,101224.84
2022-09-06T14:11:42.881Z,101216.82
2022-09-06T14:14:18.964Z,101216.63
2022-09-06T14:16:51.214Z,101213.81
2022-09-06T14:19:23.474Z,101214.11
2022-09-06T14:21:55.892Z,101206.88
2022-09-06T14:24:28.253Z,101203.32
2022-09-06T14:27:00.509Z,101201.38
2022-09-06T14:29:32.956Z,101202.41
2022-09-06T14:32:05.726Z,101199.42
2022-09-06T14:34:37.932Z,101195.95
2022-09-06T14:37:13.397Z,101190.22
2022-09-06T14:39:46.130Z,101189.60
2022-09-06T14:42:18.401Z,101191.52
2022-09-06T14:44:50.676Z,101190.08
2022-09-06T14:47:23.253Z,101190.54
2022-09-06T14:49:55.507Z,101190.89
2022-09-06T14:52:27.853Z,101189.64
2022-09-06T14:55:00.127Z,101192.53
2022-09-06T14:57:32.714Z,101190.16
2022-09-06T15:00:08.385Z,101190.36
2022-09-06T15:02:41.106Z,101187.73
2022-09-06T15:05:13.667Z,101191.30
2022-09-06T15:07:46.613Z,101182.30
2022-09-06T15:10:19.523Z,101182.58
2022-09-06T15:12:51.896Z,101180.88
2022-09-06T15:15:24.344Z,101181.23
2022-09-06T15:17:57.150Z,101183.43
2022-09-06T15:20:29.452Z,101181.37
2022-09-06T15:23:24.372Z,101182.65
2022-09-06T15:25:54.738Z,101183.91
2022-09-06T15:28:27.051Z,101186.13
2022-09-06T15:30:59.733Z,101181.75
2022-09-06T15:33:34.009Z,101186.57
2022-09-06T15:36:08.727Z,101186.38
2022-09-06T15:38:44.182Z,101186.02
2022-09-06T15:41:18.475Z,101184.20
2022-09-06T15:43:52.028Z,101186.15
2022-09-06T15:46:44.783Z,101181.85
2022-09-06T15:49:18.911Z,101182.22
2022-09-06T15:51:51.394Z,101178.77
2022-09-06T15:54:45.355Z,101177.20
2022-09-06T15:57:18.645Z,101176.67
2022-09-06T15:59:50.917Z,101171.17
2022-09-06T16:02:23.340Z,101170.48
2022-09-06T16:04:55.929Z,101163.45
2022-09-06T16:07:28.185Z,101159.23
2022-09-06T16:10:01.293Z,101157.98
2022-09-06T16:12:33.689Z,101154.67
2022-09-06T16:15:07.135Z,101151.27
2022-09-06T16:17:39.416Z,101147.80
2022-09-06T16:20:12.555Z,101145.56
2022-09-06T16:22:44.849Z,101145.17
2022-09-06T16:25:17.288Z,101146.20
2022-09-06T16:27:49.664Z,101144.64
2022-09-06T16:30:22.200Z,101149.52
2022-09-06T16:32:54.420Z,101150.80
2022-09-06T16:35:26.680Z,101151.02
2022-09-06T16:38:01.337Z,101145.94
2022-09-06T16:40:33.840Z,101144.03
2022-09-06T16:43:06.240Z,101144.46
2022-09-06T16:45:38.604Z,101144.48
2022-09-06T16:48:11.690Z,101146.09
2022-09-06T16:50:44.200Z,101144.33
2022-09-06T16:53:21.483Z,101146.16
2022-09-06T16:55:54.463Z,101148.27
2022-09-06T16:58:26.745Z,101152.03
2022-09-06T17:00:59.739Z,101157.95
2022-09-06T17:03:32.085Z,101160.69
2022-09-06T17:06:05.071Z,101163.89
2022-09-06T17:08:38.664Z,101163.89
2022-09-06T17:11:12.672Z,101166.45
2022-09-06T17:13:46.594Z,101168.15
2022-09-06T17:16:36.859Z,101174.86
2022-09-06T17:19:10.454Z,101176.89
2022-09-06T17:21:43.860Z,101179.84
2022-09-06T17:24:16.745Z,101181.34
2022-09-06T17:26:49.145Z,101181.45
2022-09-06T17:29:21.735Z,101184.80
2022-09-06T17:31:54.022Z,101185.43
2022-09-06T17:34:26.423Z,101192.25
2022-09-06T17:36:58.672Z,101191.17
2022-09-06T17:39:31.115Z,101193.36
2022-09-06T17:42:03.476Z,101199.21
2022-09-06T17:44:35.725Z,101198.83
2022-09-06T17:47:12.992Z,101202.67
2022-09-06T17:49:47.460Z,101205.98
2022-09-06T17:52:19.707Z,101209.88
2022-09-06T17:54:52.239Z,101213.70
2022-09-06T17:57:24.616Z,101213.36
2022-09-06T17:59:56.952Z,101213.45
2022-09-06T18:02:29.505Z,101213.30
2022-09-06T18:05:01.842Z,101216.53
2022-09-06T18:07:34.321Z,101217.49
2022-09-06T18:10:08.390Z,101217.81
2022-09-06T18:12:41.119Z,101222.50
2022-09-06T18:15:13.847Z,101226.67
2022-09-06T18:17:46.217Z,101225.77
2022-09-06T18:20:18.687Z,101222.54
2022-09-06T18:22:50.944Z,101226.81
2022-09-06T18:25:23.180Z,101229.05
2022-09-06T18:27:55.444Z,101232.83
2022-09-06T18:30:27.882Z,101232.85
2022-09-06T18:33:00.123Z,101232.81
2022-09-06T18:35:32.495Z,101236.23
2022-09-06T18:38:04.769Z,101235.01
2022-09-06T18:40:37.036Z,101237.36
2022-09-06T18:43:09.867Z,101239.14
2022-09-06T18:45:42.893Z,101236.38
2022-09-06T18:48:16.085Z,101234.12
2022-09-06T18:50:48.623Z,101238.67
2022-09-06T18:53:21.088Z,101230.52
2022-09-06T18:55:55.105Z,101233.13
2022-09-06T18:58:27.588Z,101230.12
2022-09-06T19:01:07.919Z,101230.63
2022-09-06T19:03:41.998Z,101231.66
2022-09-06T19:06:15.747Z,101229.02
2022-09-06T19:08:48.893Z,101231.77
2022-09-06T19:11:22.915Z,101237.14
2022-09-06T19:13:57.664Z,101235.79
2022-09-06T19:16:31.750Z,101233.86
2022-09-06T19:19:07.594Z,101233.28
2022-09-06T19:21:42.246Z,101231.24
2022-09-06T19:24:16.342Z,101233.38
2022-09-06T19:26:48.587Z,101230.19
2022-09-06T19:29:21.287Z,101232.30
2022-09-06T19:31:54.586Z,101231.21
2022-09-06T19:34:27.099Z,101231.38
2022-09-06T19:36:59.456Z,101227.16
2022-09-06T19:39:36.863Z,101224.31
2022-09-06T19:42:10.076Z,101227.34
2022-09-06T19:44:42.321Z,101223.96
2022-09-06T19:47:14.642Z,101227.40
2022-09-06T19:49:47.051Z,101224.67
2022-09-06T19:52:19.390Z,101221.53
2022-09-06T19:54:51.652Z,101218.48
2022-09-06T19:57:23.855Z,101218.20
2022-09-06T19:59:56.295Z,101218.23
2022-09-06T20:02:28.609Z,101220.13
2022-09-06T20:05:00.991Z,101220.85
2022-09-06T20:07:33.340Z,101223.52
2022-09-06T20:10:06.596Z,101220.79
2022-09-06T20:12:39.813Z,101221.41
2022-09-06T20:15:14.002Z,101216.86
2022-09-06T20:17:46.282Z,101217.27
2022-09-06T20:20:18.883Z,101219.94
2022-09-06T20:22:51.180Z,101221.86
2022-09-06T20:25:23.440Z,101222.83
2022-09-06T20:27:55.773Z,101221.48
2022-09-06T20:30:30.317Z,101223.00
2022-09-06T20:33:02.634Z,101224.71
2022-09-06T20:35:34.918Z,101226.55
2022-09-06T20:38:07.679Z,101231.84
2022-09-06T20:40:39.979Z,101231.52
2022-09-06T20:43:12.236Z,101236.37
2022-09-06T20:45:46.998Z,101240.90
2022-09-06T20:48:19.377Z,101245.17
2022-09-06T20:50:58.985Z,101244.00
2022-09-06T20:53:31.995Z,101242.49
2022-09-06T20:56:06.465Z,101242.68
2022-09-06T20:58:39.126Z,101240.66
2022-09-06T21:01:15.252Z,101241.35
2022-09-06T21:03:47.619Z,101237.14
2022-09-06T21:06:20.703Z,101235.90
2022-09-06T21:08:53.252Z,101233.77
2022-09-06T21:11:25.862Z,101236.16
2022-09-06T21:13:59.180Z,101235.63
2022-09-06T21:16:32.042Z,101237.73
2022-09-06T21:19:06.459Z,101235.41
2022-09-06T21:21:39.366Z,101232.66
2022-09-06T21:24:12.748Z,101231.09
2022-09-06T21:26:46.506Z,101236.64
2022-09-06T21:29:18.825Z,101230.82
2022-09-06T21:31:51.241Z,101230.27
2022-09-06T21:34:23.632Z,101230.07
2022-09-06T21:36:55.975Z,101229.36
2022-09-06T21:39:28.308Z,101228.16
2022-09-06T21:42:00.598Z,101224.31
2022-09-06T21:44:32.969Z,101226.30
2022-09-06T21:47:05.808Z,101225.94
2022-09-06T21:49:38.640Z,101226.64
2022-09-06T21:52:10.981Z,101222.77
2022-09-06T21:54:43.211Z,101222.94
2022-09-06T21:57:15.411Z,101230.73
2022-09-06T21:59:47.691Z,101232.14
2022-09-06T22:02:19.974Z,101228.17
2022-09-06T22:04:52.385Z,101230.02
2022-09-06T22:07:24.574Z,101230.05
2022-09-06T22:09:56.803Z,101224.83
2022-09-06T22:12:29.026Z,101222.82
2022-09-06T22:15:01.280Z,101228.36
2022-09-06T22:17:33.598Z,101224.81
2022-09-06T22:20:07.176Z,101220.79
2022-09-06T22:22:39.475Z,101223.46
2022-09-06T22:25:12.668Z,101215.53
2022-09-06T22:27:44.933Z,101219.31
2022-09-06T22:30:17.409Z,101217.13
2022-09-06T22:32:49.757Z,101220.34
2022-09-06T22:35:22.890Z,101214.39
2022-09-06T22:37:55.234Z,101216.32
2022-09-06T22:40:27.552Z,101217.02
2022-09-06T22:43:00.010Z,101215.50
2022-09-06T22:45:32.887Z,101214.41
2022-09-06T22:48:05.558Z,101213.36
2022-09-06T22:50:37.935Z,101213.20
2022-09-06T22:53:10.632Z,101210.86
2022-09-06T22:55:47.390Z,101211.91
2022-09-06T22:58:19.726Z,101217.29
2022-09-06T23:00:52.119Z,101218.04
2022-09-06T23:03:24.935Z,101222.37
2022-09-06T23:06:02.715Z,101213.64
2022-09-06T23:08:35.902Z,101215.73
2022-09-06T23:11:10.257Z,101217.77
2022-09-06T23:13:44.325Z,101217.15
2022-09-06T23:16:18.878Z,101218.91
2022-09-06T23:18:51.491Z,101218.92
2022-09-06T23:21:26.157Z,101214.98
2022-09-06T23:23:59.113Z,101214.56
2022-09-06T23:26:33.553Z,101215.61
2022-09-06T23:29:05.810Z,101217.54
2022-09-06T23:31:38.204Z,101214.77
2022-09-06T23:34:10.550Z,101209.89
2022-09-06T23:36:43.057Z,101210.30
2022-09-06T23:39:15.327Z,101210.97
2022-09-06T23:41:47.640Z,101211.80
2022-09-06T23:44:19.869Z,101209.27
2022-09-06T23:46:52.280Z,101213.35
2022-09-06T23:49:24.588Z,101214.09
2022-09-06T23:51:56.853Z,101215.88
2022-09-06T23:54:29.207Z,101213.09
2022-09-06T23:57:01.540Z,101209.08
2022-09-06T23:59:35.026Z,101210.83
